sensor_id;sensor_type;location;lat;lon;timestamp;pressure;altitude;pressure_sealevel;temperature;humidity
66206;BME280;53009;52.490;4.976;2023-09-08T00:01:57;156400;;;19.6;17.2
66206;BME280;53009;52.490;4.976;2023-09-08T00:06:57;156400;;;19.5;17.1
66206;BME280;53009;52.490;4.976;2023-09-08T00:11:57;156400;;;19.5;17.2
66206;BME280;53009;52.490;4.976;2023-09-08T00:16:57;156400;;;19.4;17.3
66206;BME280;53009;52.490;4.976;2023-09-08T00:21:57;156400;;;19.4;17.3
66206;BME280;53009;52.490;4.976;2023-09-08T00:26:57;156400;;;19.4;17.3
66206;BME280;53009;52.490;4.976;2023-09-08T00:31:57;156500;;;19.3;17.4
66206;BME280;53009;52.490;4.976;2023-09-08T00:36:57;156600;;;19.3;17.4
66206;BME280;53009;52.490;4.976;2023-09-08T00:41:57;156600;;;19.3;17.4
66206;BME280;53009;52.490;4.976;2023-09-08T00:46:57;156600;;;19.2;17.4
66206;BME280;53009;52.490;4.976;2023-09-08T00:51:57;156700;;;19.2;17.4
66206;BME280;53009;52.490;4.976;2023-09-08T00:56:57;156700;;;19.1;17.4
66206;BME280;53009;52.490;4.976;2023-09-08T01:01:57;156700;;;19.1;17.4
66206;BME280;53009;52.490;4.976;2023-09-08T01:06:57;156700;;;19.1;17.4
66206;BME280;53009;52.490;4.976;2023-09-08T01:11:57;156700;;;19;17.5
66206;BME280;53009;52.490;4.976;2023-09-08T01:16:57;156700;;;19;17.3
66206;BME280;53009;52.490;4.976;2023-09-08T01:22:05;156700;;;18.9;17.4
66206;BME280;53009;52.490;4.976;2023-09-08T01:26:57;156700;;;18.8;17.5
66206;BME280;53009;52.490;4.976;2023-09-08T01:31:57;156600;;;18.8;17.5
66206;BME280;53009;52.490;4.976;2023-09-08T01:36:57;156500;;;18.7;17.5
66206;BME280;53009;52.490;4.976;2023-09-08T01:41:57;156500;;;18.7;17.5
66206;BME280;53009;52.490;4.976;2023-09-08T01:46:57;156400;;;18.7;17.5
66206;BME280;53009;52.490;4.976;2023-09-08T01:51:57;156400;;;18.6;17.5
66206;BME280;53009;52.490;4.976;2023-09-08T01:56:57;156400;;;18.6;17.7
66206;BME280;53009;52.490;4.976;2023-09-08T02:01:57;156400;;;18.5;17.7
66206;BME280;53009;52.490;4.976;2023-09-08T02:06:57;156400;;;18.5;17.7
66206;BME280;53009;52.490;4.976;2023-09-08T02:11:58;156400;;;18.4;17.7
66206;BME280;53009;52.490;4.976;2023-09-08T02:16:57;156400;;;18.4;17.7
66206;BME280;53009;52.490;4.976;2023-09-08T02:21:57;156400;;;18.4;17.6
66206;BME280;53009;52.490;4.976;2023-09-08T02:26:57;156400;;;18.4;17.6
66206;BME280;53009;52.490;4.976;2023-09-08T02:31:57;156400;;;18.3;17.7
66206;BME280;53009;52.490;4.976;2023-09-08T02:36:57;156400;;;18.3;17.9
66206;BME280;53009;52.490;4.976;2023-09-08T02:41:57;156400;;;18.3;17.8
66206;BME280;53009;52.490;4.976;2023-09-08T02:46:58;156400;;;18.2;17.8
66206;BME280;53009;52.490;4.976;2023-09-08T02:51:58;156300;;;18.2;17.8
66206;BME280;53009;52.490;4.976;2023-09-08T02:56:58;156300;;;18.2;17.9
66206;BME280;53009;52.490;4.976;2023-09-08T03:01:58;156300;;;18.2;17.8
66206;BME280;53009;52.490;4.976;2023-09-08T03:06:58;156300;;;18.1;17.8
66206;BME280;53009;52.490;4.976;2023-09-08T03:11:58;156300;;;18.1;17.8
66206;BME280;53009;52.490;4.976;2023-09-08T03:16:58;156300;;;18.1;17.9
66206;BME280;53009;52.490;4.976;2023-09-08T03:21:58;156300;;;18;17.8
66206;BME280;53009;52.490;4.976;2023-09-08T03:26:58;156300;;;18;17.8
66206;BME280;53009;52.490;4.976;2023-09-08T03:31:58;156300;;;18;17.9
66206;BME280;53009;52.490;4.976;2023-09-08T03:36:58;156300;;;18;18.6
66206;BME280;53009;52.490;4.976;2023-09-08T03:41:58;156300;;;18;18.7
66206;BME280;53009;52.490;4.976;2023-09-08T03:46:58;156300;;;18;18.6
66206;BME280;53009;52.490;4.976;2023-09-08T03:51:58;156300;;;18;18.9
66206;BME280;53009;52.490;4.976;2023-09-08T03:56:58;156300;;;18;18.7
66206;BME280;53009;52.490;4.976;2023-09-08T04:01:58;156300;;;17.9;18.8
66206;BME280;53009;52.490;4.976;2023-09-08T04:06:58;156300;;;17.9;18.7
66206;BME280;53009;52.490;4.976;2023-09-08T04:11:58;156300;;;17.8;18.7
66206;BME280;53009;52.490;4.976;2023-09-08T04:16:58;156300;;;17.8;18.7
66206;BME280;53009;52.490;4.976;2023-09-08T04:21:58;156300;;;17.7;18.7
66206;BME280;53009;52.490;4.976;2023-09-08T04:26:58;156300;;;17.8;18.8
66206;BME280;53009;52.490;4.976;2023-09-08T04:31:58;156300;;;17.7;18.9
66206;BME280;53009;52.490;4.976;2023-09-08T04:36:58;156300;;;17.7;18.9
66206;BME280;53009;52.490;4.976;2023-09-08T04:41:58;156300;;;17.7;19
66206;BME280;53009;52.490;4.976;2023-09-08T04:46:58;156300;;;17.6;19
66206;BME280;53009;52.490;4.976;2023-09-08T04:51:58;156300;;;17.6;19.1
66206;BME280;53009;52.490;4.976;2023-09-08T04:56:58;156300;;;17.6;19.3
66206;BME280;53009;52.490;4.976;2023-09-08T05:01:58;156300;;;17.6;19.2
66206;BME280;53009;52.490;4.976;2023-09-08T05:06:58;156300;;;17.7;19.3
66206;BME280;53009;52.490;4.976;2023-09-08T05:11:58;156300;;;17.7;19.3
66206;BME280;53009;52.490;4.976;2023-09-08T05:16:58;156300;;;17.6;19.3
66206;BME280;53009;52.490;4.976;2023-09-08T05:21:58;156300;;;17.7;19.6
66206;BME280;53009;52.490;4.976;2023-09-08T05:26:58;156300;;;17.8;19.5
66206;BME280;53009;52.490;4.976;2023-09-08T05:31:58;156300;;;17.8;19.5
66206;BME280;53009;52.490;4.976;2023-09-08T05:36:58;156300;;;17.8;19.4
66206;BME280;53009;52.490;4.976;2023-09-08T05:41:58;156300;;;17.8;19.5
66206;BME280;53009;52.490;4.976;2023-09-08T05:46:58;156300;;;17.8;19.5
66206;BME280;53009;52.490;4.976;2023-09-08T05:51:58;156000;;;17.8;19.5
66206;BME280;53009;52.490;4.976;2023-09-08T05:56:58;156000;;;17.9;19.5
66206;BME280;53009;52.490;4.976;2023-09-08T06:01:58;155900;;;18;19.3
66206;BME280;53009;52.490;4.976;2023-09-08T06:06:58;156000;;;18;19.6
66206;BME280;53009;52.490;4.976;2023-09-08T06:11:58;156200;;;18.1;19.4
66206;BME280;53009;52.490;4.976;2023-09-08T06:16:58;156200;;;18.1;19.3
66206;BME280;53009;52.490;4.976;2023-09-08T06:21:58;155900;;;18.2;19.5
66206;BME280;53009;52.490;4.976;2023-09-08T06:26:58;155900;;;18.3;19.6
66206;BME280;53009;52.490;4.976;2023-09-08T06:31:58;155900;;;18.4;19.5
66206;BME280;53009;52.490;4.976;2023-09-08T06:36:58;155900;;;18.5;19.4
66206;BME280;53009;52.490;4.976;2023-09-08T06:41:58;155900;;;18.7;19.4
66206;BME280;53009;52.490;4.976;2023-09-08T06:46:58;155900;;;18.7;19.4
66206;BME280;53009;52.490;4.976;2023-09-08T06:51:58;156000;;;18.8;19.4
66206;BME280;53009;52.490;4.976;2023-09-08T06:56:58;156000;;;18.9;19.3
66206;BME280;53009;52.490;4.976;2023-09-08T07:01:58;156000;;;19;19.2
66206;BME280;53009;52.490;4.976;2023-09-08T07:06:58;156100;;;19.2;19.1
66206;BME280;53009;52.490;4.976;2023-09-08T07:11:58;156200;;;19.2;18.8
66206;BME280;53009;52.490;4.976;2023-09-08T07:16:58;156200;;;19.3;18.6
66206;BME280;53009;52.490;4.976;2023-09-08T07:21:58;156200;;;19.4;18.5
66206;BME280;53009;52.490;4.976;2023-09-08T07:26:59;156300;;;19.5;18.3
66206;BME280;53009;52.490;4.976;2023-09-08T07:31:58;156300;;;19.7;18.3
66206;BME280;53009;52.490;4.976;2023-09-08T07:36:59;156300;;;19.9;18.3
66206;BME280;53009;52.490;4.976;2023-09-08T07:41:58;156300;;;20.2;18.1
66206;BME280;53009;52.490;4.976;2023-09-08T07:46:58;156300;;;20.6;17.4
66206;BME280;53009;52.490;4.976;2023-09-08T07:51:58;156400;;;21;16.8
66206;BME280;53009;52.490;4.976;2023-09-08T07:56:58;156400;;;21.3;16
66206;BME280;53009;52.490;4.976;2023-09-08T08:01:58;156400;;;21.6;15.8
66206;BME280;53009;52.490;4.976;2023-09-08T08:06:58;156400;;;21.9;14.9
66206;BME280;53009;52.490;4.976;2023-09-08T08:11:58;156400;;;22.2;14.7
66206;BME280;53009;52.490;4.976;2023-09-08T08:16:58;156400;;;22.5;13.9
66206;BME280;53009;52.490;4.976;2023-09-08T08:21:58;156400;;;22.6;13.4
66206;BME280;53009;52.490;4.976;2023-09-08T08:26:58;156400;;;22.8;12.7
66206;BME280;53009;52.490;4.976;2023-09-08T08:31:58;156400;;;23.1;13
66206;BME280;53009;52.490;4.976;2023-09-08T08:36:58;156400;;;23.3;12.1
66206;BME280;53009;52.490;4.976;2023-09-08T08:41:58;156400;;;23.6;11.6
66206;BME280;53009;52.490;4.976;2023-09-08T08:46:58;156400;;;23.7;12.2
66206;BME280;53009;52.490;4.976;2023-09-08T08:51:58;156400;;;24.1;12.1
66206;BME280;53009;52.490;4.976;2023-09-08T08:56:58;156400;;;24.2;11.3
66206;BME280;53009;52.490;4.976;2023-09-08T09:01:58;156400;;;24.5;11.1
66206;BME280;53009;52.490;4.976;2023-09-08T09:06:59;156400;;;24.7;11
66206;BME280;53009;52.490;4.976;2023-09-08T09:11:58;156400;;;24.9;10
66206;BME280;53009;52.490;4.976;2023-09-08T09:16:58;156400;;;25.2;9.7
66206;BME280;53009;52.490;4.976;2023-09-08T09:21:58;156400;;;25.3;8.7
66206;BME280;53009;52.490;4.976;2023-09-08T09:26:58;156500;;;25.7;8.8
66206;BME280;53009;52.490;4.976;2023-09-08T09:32:01;156500;;;26;8.4
66206;BME280;53009;52.490;4.976;2023-09-08T09:36:58;156500;;;26.1;8.1
66206;BME280;53009;52.490;4.976;2023-09-08T09:41:58;156500;;;26.2;8.2
66206;BME280;53009;52.490;4.976;2023-09-08T09:46:59;156500;;;26.3;6.9
66206;BME280;53009;52.490;4.976;2023-09-08T09:51:58;156500;;;26.6;7.6
66206;BME280;53009;52.490;4.976;2023-09-08T09:56:58;156500;;;26.8;6.4
66206;BME280;53009;52.490;4.976;2023-09-08T10:01:58;156500;;;27.1;6
66206;BME280;53009;52.490;4.976;2023-09-08T10:06:58;156500;;;27.2;5
66206;BME280;53009;52.490;4.976;2023-09-08T10:11:59;156500;;;27.4;4.9
66206;BME280;53009;52.490;4.976;2023-09-08T10:16:59;156500;;;27.5;4.4
66206;BME280;53009;52.490;4.976;2023-09-08T10:21:59;156500;;;27.7;4.8
66206;BME280;53009;52.490;4.976;2023-09-08T10:27:00;156500;;;28;4.6
66206;BME280;53009;52.490;4.976;2023-09-08T10:31:58;156500;;;28.1;3.7
66206;BME280;53009;52.490;4.976;2023-09-08T10:36:58;156500;;;28.3;2.6
66206;BME280;53009;52.490;4.976;2023-09-08T10:42:30;156500;;;28.3;1.6
66206;BME280;53009;52.490;4.976;2023-09-08T10:46:58;156500;;;28.5;1.9
66206;BME280;53009;52.490;4.976;2023-09-08T10:52:05;156500;;;28.5;0.3
66206;BME280;53009;52.490;4.976;2023-09-08T10:56:58;156500;;;28.6;0.4
66206;BME280;53009;52.490;4.976;2023-09-08T11:01:59;156500;;;28.8;1.7
66206;BME280;53009;52.490;4.976;2023-09-08T11:06:58;156500;;;28.8;0
66206;BME280;53009;52.490;4.976;2023-09-08T11:12:00;156500;;;29;0
66206;BME280;53009;52.490;4.976;2023-09-08T11:17:00;156500;;;29;0
66206;BME280;53009;52.490;4.976;2023-09-08T11:21:58;156500;;;29.2;0
66206;BME280;53009;52.490;4.976;2023-09-08T11:26:58;156500;;;29.4;0
66206;BME280;53009;52.490;4.976;2023-09-08T11:31:58;156500;;;29.5;0
66206;BME280;53009;52.490;4.976;2023-09-08T11:36:58;156500;;;29.6;0
66206;BME280;53009;52.490;4.976;2023-09-08T11:41:58;156500;;;29.7;0
66206;BME280;53009;52.490;4.976;2023-09-08T11:46:58;156500;;;29.7;0
66206;BME280;53009;52.490;4.976;2023-09-08T11:51:58;156500;;;29.7;0
66206;BME280;53009;52.490;4.976;2023-09-08T11:56:59;156500;;;29.7;0
66206;BME280;53009;52.490;4.976;2023-09-08T12:01:58;156500;;;29.8;0
66206;BME280;53009;52.490;4.976;2023-09-08T12:06:58;156600;;;29.9;0
66206;BME280;53009;52.490;4.976;2023-09-08T12:11:58;156700;;;29.9;0
66206;BME280;53009;52.490;4.976;2023-09-08T12:17:05;156700;;;29.8;0
66206;BME280;53009;52.490;4.976;2023-09-08T12:22:00;156800;;;29.9;100
66206;BME280;53009;52.490;4.976;2023-09-08T12:26:59;156800;;;30.1;100
66206;BME280;53009;52.490;4.976;2023-09-08T12:31:58;156800;;;30.1;100
66206;BME280;53009;52.490;4.976;2023-09-08T12:36:58;156800;;;30.2;100
66206;BME280;53009;52.490;4.976;2023-09-08T12:41:58;156800;;;30.2;100
66206;BME280;53009;52.490;4.976;2023-09-08T12:46:58;156800;;;30.1;100
66206;BME280;53009;52.490;4.976;2023-09-08T12:51:58;156900;;;30.2;100
66206;BME280;53009;52.490;4.976;2023-09-08T12:56:58;156800;;;30.2;100
66206;BME280;53009;52.490;4.976;2023-09-08T13:01:58;156800;;;30.3;100
66206;BME280;53009;52.490;4.976;2023-09-08T13:06:58;156700;;;30.5;100
66206;BME280;53009;52.490;4.976;2023-09-08T13:11:58;156700;;;30.4;100
66206;BME280;53009;52.490;4.976;2023-09-08T13:16:58;156600;;;30.5;100
66206;BME280;53009;52.490;4.976;2023-09-08T13:21:58;156600;;;30.7;100
66206;BME280;53009;52.490;4.976;2023-09-08T13:26:58;156700;;;30.5;100
66206;BME280;53009;52.490;4.976;2023-09-08T13:31:58;156800;;;30.6;100
66206;BME280;53009;52.490;4.976;2023-09-08T13:37:00;156800;;;30.6;100
66206;BME280;53009;52.490;4.976;2023-09-08T13:41:59;156800;;;30.5;100
66206;BME280;53009;52.490;4.976;2023-09-08T13:46:58;156800;;;30.5;100
66206;BME280;53009;52.490;4.976;2023-09-08T13:51:58;156800;;;30.8;100
66206;BME280;53009;52.490;4.976;2023-09-08T13:56:59;156900;;;30.6;100
66206;BME280;53009;52.490;4.976;2023-09-08T14:01:58;156900;;;30.5;100
66206;BME280;53009;52.490;4.976;2023-09-08T14:06:58;156900;;;30.4;100
66206;BME280;53009;52.490;4.976;2023-09-08T14:11:58;156900;;;30.5;100
66206;BME280;53009;52.490;4.976;2023-09-08T14:16:59;156900;;;30.6;100
66206;BME280;53009;52.490;4.976;2023-09-08T14:21:58;156900;;;30.5;100
66206;BME280;53009;52.490;4.976;2023-09-08T14:26:58;156900;;;30.5;100
66206;BME280;53009;52.490;4.976;2023-09-08T14:31:58;156900;;;30.5;100
66206;BME280;53009;52.490;4.976;2023-09-08T14:36:58;156900;;;30.6;100
66206;BME280;53009;52.490;4.976;2023-09-08T14:41:58;156900;;;30.3;100
66206;BME280;53009;52.490;4.976;2023-09-08T14:46:58;156900;;;30.3;100
66206;BME280;53009;52.490;4.976;2023-09-08T14:51:58;156900;;;30.3;100
66206;BME280;53009;52.490;4.976;2023-09-08T14:56:58;156900;;;30.2;100
66206;BME280;53009;52.490;4.976;2023-09-08T15:01:58;156800;;;30.3;100
66206;BME280;53009;52.490;4.976;2023-09-08T15:06:58;156800;;;30.2;100
66206;BME280;53009;52.490;4.976;2023-09-08T15:11:58;156700;;;30.1;100
66206;BME280;53009;52.490;4.976;2023-09-08T15:16:58;156700;;;30.1;100
66206;BME280;53009;52.490;4.976;2023-09-08T15:21:58;156600;;;29.9;100
66206;BME280;53009;52.490;4.976;2023-09-08T15:26:58;156600;;;29.9;100
66206;BME280;53009;52.490;4.976;2023-09-08T15:31:58;156600;;;29.8;100
66206;BME280;53009;52.490;4.976;2023-09-08T15:36:58;156600;;;29.7;100
66206;BME280;53009;52.490;4.976;2023-09-08T15:41:59;156600;;;29.6;100
66206;BME280;53009;52.490;4.976;2023-09-08T15:46:59;156600;;;29.5;100
66206;BME280;53009;52.490;4.976;2023-09-08T15:51:59;156600;;;29.5;100
66206;BME280;53009;52.490;4.976;2023-09-08T15:56:58;156600;;;29.5;100
66206;BME280;53009;52.490;4.976;2023-09-08T16:01:58;156600;;;29.3;100
66206;BME280;53009;52.490;4.976;2023-09-08T16:06:58;156600;;;29.2;100
66206;BME280;53009;52.490;4.976;2023-09-08T16:11:58;156600;;;29.2;100
66206;BME280;53009;52.490;4.976;2023-09-08T16:16:58;156600;;;28.9;100
66206;BME280;53009;52.490;4.976;2023-09-08T16:21:59;156600;;;28.8;100
66206;BME280;53009;52.490;4.976;2023-09-08T16:26:58;156600;;;28.7;100
66206;BME280;53009;52.490;4.976;2023-09-08T16:31:59;156600;;;28.6;100
66206;BME280;53009;52.490;4.976;2023-09-08T16:36:58;156600;;;28.6;100
66206;BME280;53009;52.490;4.976;2023-09-08T16:41:58;156600;;;28.4;0
66206;BME280;53009;52.490;4.976;2023-09-08T16:46:59;156600;;;28.3;0
66206;BME280;53009;52.490;4.976;2023-09-08T16:51:59;156600;;;28;0.4
66206;BME280;53009;52.490;4.976;2023-09-08T16:56:59;156600;;;27.8;5.1
66206;BME280;53009;52.490;4.976;2023-09-08T17:01:58;156600;;;27.7;6.5
66206;BME280;53009;52.490;4.976;2023-09-08T17:06:59;156600;;;27.5;7.2
66206;BME280;53009;52.490;4.976;2023-09-08T17:11:59;156600;;;27.3;7.5
66206;BME280;53009;52.490;4.976;2023-09-08T17:16:59;156600;;;27.2;8.1
66206;BME280;53009;52.490;4.976;2023-09-08T17:21:59;156600;;;27;8.8
66206;BME280;53009;52.490;4.976;2023-09-08T17:26:59;156600;;;26.8;9.1
66206;BME280;53009;52.490;4.976;2023-09-08T17:31:59;156600;;;26.8;9.3
66206;BME280;53009;52.490;4.976;2023-09-08T17:36:59;156600;;;26.6;9.7
66206;BME280;53009;52.490;4.976;2023-09-08T17:41:59;156600;;;26.4;9.9
66206;BME280;53009;52.490;4.976;2023-09-08T17:46:59;156600;;;26.2;10
66206;BME280;53009;52.490;4.976;2023-09-08T17:51:59;156600;;;26.1;10.1
66206;BME280;53009;52.490;4.976;2023-09-08T17:56:59;156600;;;26;9.9
66206;BME280;53009;52.490;4.976;2023-09-08T18:01:59;156500;;;25.9;10
66206;BME280;53009;52.490;4.976;2023-09-08T18:06:59;156400;;;25.7;10.3
66206;BME280;53009;52.490;4.976;2023-09-08T18:11:59;156400;;;25.5;10.5
66206;BME280;53009;52.490;4.976;2023-09-08T18:16:59;156400;;;25.4;10.6
66206;BME280;53009;52.490;4.976;2023-09-08T18:21:59;156400;;;25.2;10.8
66206;BME280;53009;52.490;4.976;2023-09-08T18:26:59;156300;;;25.1;10.9
66206;BME280;53009;52.490;4.976;2023-09-08T18:31:59;156300;;;25;11
66206;BME280;53009;52.490;4.976;2023-09-08T18:36:59;156300;;;24.8;11.1
66206;BME280;53009;52.490;4.976;2023-09-08T18:41:59;156300;;;24.7;11.2
66206;BME280;53009;52.490;4.976;2023-09-08T18:46:59;156200;;;24.6;11.3
66206;BME280;53009;52.490;4.976;2023-09-08T18:52:00;156300;;;24.5;11.5
66206;BME280;53009;52.490;4.976;2023-09-08T18:57:00;156200;;;24.3;11.5
66206;BME280;53009;52.490;4.976;2023-09-08T19:02:00;156200;;;24.3;11.6
66206;BME280;53009;52.490;4.976;2023-09-08T19:07:00;156200;;;24.2;11.6
66206;BME280;53009;52.490;4.976;2023-09-08T19:12:00;156200;;;24.1;11.7
66206;BME280;53009;52.490;4.976;2023-09-08T19:17:00;156200;;;24;11.8
66206;BME280;53009;52.490;4.976;2023-09-08T19:22:00;156200;;;23.8;12
66206;BME280;53009;52.490;4.976;2023-09-08T19:27:00;156200;;;23.8;12.1
66206;BME280;53009;52.490;4.976;2023-09-08T19:32:00;156100;;;23.7;12.3
66206;BME280;53009;52.490;4.976;2023-09-08T19:37:00;156100;;;23.6;12.4
66206;BME280;53009;52.490;4.976;2023-09-08T19:42:00;156100;;;23.5;12.5
66206;BME280;53009;52.490;4.976;2023-09-08T19:47:00;156100;;;23.4;12.7
66206;BME280;53009;52.490;4.976;2023-09-08T19:52:00;156200;;;23.4;12.8
66206;BME280;53009;52.490;4.976;2023-09-08T19:57:00;156300;;;23.3;12.8
66206;BME280;53009;52.490;4.976;2023-09-08T20:02:00;156400;;;23.2;12.9
66206;BME280;53009;52.490;4.976;2023-09-08T20:07:00;156400;;;23.1;13
66206;BME280;53009;52.490;4.976;2023-09-08T20:12:00;156500;;;23.1;13
66206;BME280;53009;52.490;4.976;2023-09-08T20:17:00;156500;;;23;13.1
66206;BME280;53009;52.490;4.976;2023-09-08T20:22:00;156500;;;22.9;13.2
66206;BME280;53009;52.490;4.976;2023-09-08T20:27:00;156500;;;22.9;13.3
66206;BME280;53009;52.490;4.976;2023-09-08T20:32:00;156500;;;22.8;13.4
66206;BME280;53009;52.490;4.976;2023-09-08T20:37:00;156500;;;22.7;13.4
66206;BME280;53009;52.490;4.976;2023-09-08T20:42:00;156500;;;22.7;13.6
66206;BME280;53009;52.490;4.976;2023-09-08T20:47:00;156500;;;22.6;13.7
66206;BME280;53009;52.490;4.976;2023-09-08T20:52:00;156500;;;22.6;13.9
66206;BME280;53009;52.490;4.976;2023-09-08T20:57:00;156600;;;22.5;14
66206;BME280;53009;52.490;4.976;2023-09-08T21:02:00;156600;;;22.4;13.9
66206;BME280;53009;52.490;4.976;2023-09-08T21:07:00;156600;;;22.3;14.1
66206;BME280;53009;52.490;4.976;2023-09-08T21:12:00;156600;;;22.3;14.2
66206;BME280;53009;52.490;4.976;2023-09-08T21:17:00;156600;;;22.2;14.2
66206;BME280;53009;52.490;4.976;2023-09-08T21:22:00;156600;;;22.1;14.3
66206;BME280;53009;52.490;4.976;2023-09-08T21:27:00;156500;;;22.1;14.5
66206;BME280;53009;52.490;4.976;2023-09-08T21:32:00;156500;;;22.1;14.6
66206;BME280;53009;52.490;4.976;2023-09-08T21:37:00;156500;;;22;14.7
66206;BME280;53009;52.490;4.976;2023-09-08T21:42:00;156500;;;22;14.7
66206;BME280;53009;52.490;4.976;2023-09-08T21:47:00;156500;;;21.9;14.8
66206;BME280;53009;52.490;4.976;2023-09-08T21:52:00;156500;;;21.8;14.9
66206;BME280;53009;52.490;4.976;2023-09-08T21:57:00;156500;;;21.8;14.9
66206;BME280;53009;52.490;4.976;2023-09-08T22:02:00;156500;;;21.7;15
66206;BME280;53009;52.490;4.976;2023-09-08T22:07:00;156500;;;21.6;15.1
66206;BME280;53009;52.490;4.976;2023-09-08T22:12:00;156500;;;21.6;15.2
66206;BME280;53009;52.490;4.976;2023-09-08T22:17:00;156500;;;21.5;15.4
66206;BME280;53009;52.490;4.976;2023-09-08T22:22:00;156500;;;21.5;15.5
66206;BME280;53009;52.490;4.976;2023-09-08T22:27:00;156500;;;21.4;15.4
66206;BME280;53009;52.490;4.976;2023-09-08T22:32:00;156500;;;21.3;15.5
66206;BME280;53009;52.490;4.976;2023-09-08T22:37:00;156500;;;21.3;15.5
66206;BME280;53009;52.490;4.976;2023-09-08T22:42:00;156500;;;21.2;15.6
66206;BME280;53009;52.490;4.976;2023-09-08T22:47:00;156500;;;21.2;15.7
66206;BME280;53009;52.490;4.976;2023-09-08T22:52:00;156500;;;21.1;15.7
66206;BME280;53009;52.490;4.976;2023-09-08T22:57:00;156500;;;21.1;15.8
66206;BME280;53009;52.490;4.976;2023-09-08T23:02:00;156500;;;21;15.8
66206;BME280;53009;52.490;4.976;2023-09-08T23:07:00;156500;;;20.9;15.9
66206;BME280;53009;52.490;4.976;2023-09-08T23:12:00;156500;;;20.9;16
66206;BME280;53009;52.490;4.976;2023-09-08T23:17:00;156500;;;20.8;16
66206;BME280;53009;52.490;4.976;2023-09-08T23:22:00;156500;;;20.8;16.1
66206;BME280;53009;52.490;4.976;2023-09-08T23:27:00;156500;;;20.7;16.1
66206;BME280;53009;52.490;4.976;2023-09-08T23:32:00;156500;;;20.7;16.1
66206;BME280;53009;52.490;4.976;2023-09-08T23:37:01;156500;;;20.6;16.2
66206;BME280;53009;52.490;4.976;2023-09-08T23:42:00;156500;;;20.6;16.2
66206;BME280;53009;52.490;4.976;2023-09-08T23:47:00;156500;;;20.5;16.3
66206;BME280;53009;52.490;4.976;2023-09-08T23:52:00;156500;;;20.5;16.4
66206;BME280;53009;52.490;4.976;2023-09-08T23:57:00;156500;;;20.5;16.4
